createdAt,value
2022-10-31T00:01:39.465Z,1.00
2022-10-31T00:04:08.032Z,1.20
2022-10-31T00:06:35.628Z,1.00
2022-10-31T00:09:05.632Z,0.80
2022-10-31T00:11:33.398Z,1.00
2022-10-31T00:14:01.234Z,1.00
2022-10-31T00:16:30.231Z,2.20
2022-10-31T00:19:00.396Z,1.00
2022-10-31T00:21:29.560Z,0.00
2022-10-31T00:23:57.998Z,1.40
2022-10-31T00:26:26.148Z,0.00
2022-10-31T00:28:53.969Z,1.00
2022-10-31T00:31:22.253Z,0.00
2022-10-31T00:33:50.951Z,0.00
2022-10-31T00:36:20.917Z,0.00
2022-10-31T00:38:49.674Z,1.00
2022-10-31T00:41:19.550Z,1.00
2022-10-31T00:43:47.563Z,0.00
2022-10-31T00:46:15.234Z,0.00
2022-10-31T00:48:44.130Z,0.00
2022-10-31T00:51:12.179Z,1.00
2022-10-31T00:53:41.797Z,0.20
2022-10-31T00:56:09.550Z,0.80
2022-10-31T00:58:37.616Z,1.00
2022-10-31T01:01:05.708Z,0.80
2022-10-31T01:03:34.516Z,0.00
2022-10-31T01:06:12.735Z,1.00
2022-10-31T01:08:41.628Z,0.00
2022-10-31T01:11:20.303Z,0.00
2022-10-31T01:13:48.409Z,0.20
2022-10-31T01:16:18.947Z,0.20
2022-10-31T01:18:47.525Z,0.20
2022-10-31T01:21:18.311Z,0.20
2022-10-31T01:23:46.040Z,0.40
2022-10-31T01:26:23.507Z,1.00
2022-10-31T01:29:00.305Z,0.60
2022-10-31T01:31:31.723Z,0.00
2022-10-31T01:34:00.132Z,0.60
2022-10-31T01:36:30.987Z,1.80
2022-10-31T01:39:01.154Z,1.40
2022-10-31T01:41:32.676Z,0.00
2022-10-31T01:44:03.213Z,0.60
2022-10-31T01:46:38.583Z,0.00
2022-10-31T01:49:12.798Z,0.40
2022-10-31T01:51:46.664Z,0.00
2022-10-31T01:54:19.713Z,1.00
2022-10-31T01:56:52.386Z,0.40
2022-10-31T01:59:22.952Z,0.00
2022-10-31T02:01:53.313Z,0.00
2022-10-31T02:04:23.821Z,0.00
2022-10-31T02:06:57.194Z,0.00
2022-10-31T02:09:26.385Z,1.40
2022-10-31T02:11:57.671Z,1.00
2022-10-31T02:14:31.063Z,0.80
2022-10-31T02:16:59.549Z,0.80
2022-10-31T02:20:04.586Z,0.00
2022-10-31T02:22:42.222Z,2.60
2022-10-31T02:25:51.592Z,0.00
2022-10-31T02:28:56.663Z,0.80
2022-10-31T02:31:35.221Z,0.00
2022-10-31T02:34:25.774Z,0.60
2022-10-31T02:37:12.019Z,0.00
2022-10-31T02:39:48.717Z,0.00
2022-10-31T02:42:45.028Z,0.60
2022-10-31T02:45:51.711Z,0.00
2022-10-31T02:48:26.544Z,0.00
2022-10-31T02:51:03.478Z,0.00
2022-10-31T02:53:39.349Z,0.20
2022-10-31T02:56:17.650Z,0.20
2022-10-31T02:58:58.582Z,1.00
2022-10-31T03:01:49.969Z,1.00
2022-10-31T03:04:36.381Z,0.00
2022-10-31T03:07:38.256Z,0.00
2022-10-31T03:10:10.879Z,1.00
2022-10-31T03:13:00.923Z,0.00
2022-10-31T03:15:36.118Z,0.80
2022-10-31T03:18:17.622Z,0.20
2022-10-31T03:20:59.379Z,0.60
2022-10-31T03:23:29.961Z,0.00
2022-10-31T03:26:00.192Z,0.00
2022-10-31T03:28:35.576Z,0.20
2022-10-31T03:31:07.714Z,2.20
2022-10-31T03:33:41.963Z,1.00
2022-10-31T03:36:13.460Z,0.20
2022-10-31T03:38:44.183Z,0.20
2022-10-31T03:41:20.421Z,2.20
2022-10-31T03:43:56.923Z,0.00
2022-10-31T03:46:25.997Z,1.80
2022-10-31T03:48:56.511Z,0.00
2022-10-31T03:51:41.280Z,1.00
2022-10-31T03:54:12.886Z,0.00
2022-10-31T03:57:06.987Z,0.00
2022-10-31T03:59:38.631Z,1.00
2022-10-31T04:02:16.145Z,0.20
2022-10-31T04:04:47.542Z,0.40
2022-10-31T04:07:16.336Z,0.00
2022-10-31T04:09:46.643Z,0.40
2022-10-31T04:12:17.182Z,0.20
2022-10-31T04:15:13.237Z,0.00
2022-10-31T04:17:45.530Z,0.60
2022-10-31T04:20:16.707Z,1.00
2022-10-31T04:22:44.413Z,0.00
2022-10-31T04:25:12.014Z,1.00
2022-10-31T04:27:40.316Z,0.00
2022-10-31T04:30:09.822Z,0.00
2022-10-31T04:32:40.296Z,1.20
2022-10-31T04:35:08.874Z,0.20
2022-10-31T04:37:36.314Z,1.80
2022-10-31T04:40:05.473Z,0.00
2022-10-31T04:43:04.634Z,1.00
2022-10-31T04:45:33.388Z,0.40
2022-10-31T04:48:00.973Z,0.00
2022-10-31T04:50:32.784Z,0.80
2022-10-31T04:53:01.203Z,1.00
2022-10-31T04:55:32.636Z,1.00
2022-10-31T04:58:21.593Z,1.00
2022-10-31T05:00:56.767Z,1.00
2022-10-31T05:03:24.820Z,1.20
2022-10-31T05:05:52.255Z,0.00
2022-10-31T05:08:19.955Z,0.80
2022-10-31T05:10:50.465Z,0.40
2022-10-31T05:13:18.273Z,0.00
2022-10-31T05:16:04.740Z,0.80
2022-10-31T05:19:04.356Z,1.00
2022-10-31T05:21:52.069Z,1.00
2022-10-31T05:24:22.997Z,0.60
2022-10-31T05:26:50.953Z,2.60
2022-10-31T05:29:18.564Z,3.80
2022-10-31T05:31:46.121Z,0.00
2022-10-31T05:34:33.650Z,0.00
2022-10-31T05:37:27.017Z,0.00
2022-10-31T05:39:54.685Z,0.00
2022-10-31T05:42:22.909Z,0.80
2022-10-31T05:44:50.516Z,0.60
2022-10-31T05:47:31.857Z,0.00
2022-10-31T05:50:18.135Z,0.00
2022-10-31T05:53:07.398Z,0.00
2022-10-31T05:55:38.051Z,0.00
2022-10-31T05:58:13.056Z,0.00
2022-10-31T06:00:44.260Z,0.00
2022-10-31T06:03:13.535Z,1.00
2022-10-31T06:05:52.507Z,0.00
2022-10-31T06:08:25.812Z,1.40
2022-10-31T06:10:55.324Z,0.00
2022-10-31T06:13:43.084Z,0.00
2022-10-31T06:16:17.992Z,1.00
2022-10-31T06:18:49.517Z,0.00
2022-10-31T06:21:19.002Z,0.00
2022-10-31T06:23:48.682Z,0.40
2022-10-31T06:26:35.152Z,1.00
2022-10-31T06:29:04.304Z,1.00
2022-10-31T06:31:57.936Z,0.20
2022-10-31T06:34:25.604Z,0.60
2022-10-31T06:36:53.733Z,1.00
2022-10-31T06:39:24.671Z,0.00
2022-10-31T06:41:52.308Z,0.00
2022-10-31T06:44:22.019Z,0.40
2022-10-31T06:46:55.266Z,1.00
2022-10-31T06:49:49.146Z,0.00
2022-10-31T06:52:18.458Z,0.50
2022-10-31T06:54:46.101Z,0.00
2022-10-31T06:57:14.722Z,0.00
2022-10-31T06:59:42.398Z,0.25
2022-10-31T07:02:13.689Z,1.75
2022-10-31T07:04:43.661Z,0.00
2022-10-31T07:07:14.763Z,0.00
2022-10-31T07:09:42.683Z,1.00
2022-10-31T07:12:11.874Z,1.00
2022-10-31T07:14:44.822Z,1.00
2022-10-31T07:17:12.222Z,2.25
2022-10-31T07:19:42.468Z,0.75
2022-10-31T07:22:11.525Z,0.50
2022-10-31T07:24:40.883Z,0.50
2022-10-31T07:27:42.975Z,0.00
2022-10-31T07:30:14.382Z,0.00
2022-10-31T07:32:43.872Z,0.00
2022-10-31T07:35:28.981Z,0.00
2022-10-31T07:38:08.851Z,0.00
2022-10-31T07:40:36.305Z,1.00
2022-10-31T07:43:03.916Z,0.00
2022-10-31T07:46:03.883Z,0.00
2022-10-31T07:48:50.281Z,1.00
2022-10-31T07:51:36.461Z,1.00
2022-10-31T07:54:36.300Z,0.00
2022-10-31T07:57:04.123Z,1.25
2022-10-31T07:59:31.828Z,1.50
2022-10-31T08:01:59.662Z,0.25
2022-10-31T08:04:54.910Z,0.00
2022-10-31T08:07:30.790Z,0.25
2022-10-31T08:10:04.870Z,0.50
2022-10-31T08:12:32.663Z,0.40
2022-10-31T08:15:00.039Z,1.00
2022-10-31T08:17:27.814Z,0.20
2022-10-31T08:19:57.113Z,2.00
2022-10-31T08:22:32.800Z,0.20
2022-10-31T08:25:01.763Z,1.00
2022-10-31T08:27:31.583Z,1.00
2022-10-31T08:30:01.446Z,1.00
2022-10-31T08:32:29.103Z,1.00
2022-10-31T08:35:15.542Z,2.00
2022-10-31T08:38:02.365Z,1.00
2022-10-31T08:40:32.925Z,2.00
2022-10-31T08:43:04.816Z,2.00
2022-10-31T08:45:34.242Z,1.00
2022-10-31T08:48:03.818Z,1.00
2022-10-31T08:50:34.005Z,3.60
2022-10-31T08:53:13.605Z,1.00
2022-10-31T08:55:43.238Z,2.00
2022-10-31T08:58:25.670Z,1.60
2022-10-31T09:01:00.598Z,2.00
2022-10-31T09:03:32.104Z,1.40
2022-10-31T09:06:04.272Z,1.80
2022-10-31T09:08:33.077Z,0.40
2022-10-31T09:11:02.107Z,1.00
2022-10-31T09:13:49.772Z,1.20
2022-10-31T09:16:17.553Z,0.80
2022-10-31T09:18:45.557Z,1.00
2022-10-31T09:21:17.144Z,1.40
2022-10-31T09:23:44.846Z,1.00
2022-10-31T09:26:12.219Z,0.60
2022-10-31T09:29:04.526Z,0.80
2022-10-31T09:31:33.041Z,1.00
2022-10-31T09:34:05.483Z,2.00
2022-10-31T09:36:39.849Z,1.00
2022-10-31T09:39:11.144Z,1.00
2022-10-31T09:42:00.850Z,0.80
2022-10-31T09:45:08.811Z,1.00
2022-10-31T09:48:01.039Z,1.00
2022-10-31T09:50:44.594Z,1.00
2022-10-31T09:53:36.148Z,1.00
2022-10-31T09:56:10.302Z,0.60
2022-10-31T09:58:44.669Z,2.00
2022-10-31T10:01:36.073Z,1.00
2022-10-31T10:04:32.681Z,0.40
2022-10-31T10:07:28.197Z,1.80
2022-10-31T10:10:26.716Z,1.20
2022-10-31T10:14:13.432Z,1.00
2022-10-31T10:16:46.792Z,0.40
2022-10-31T10:19:39.717Z,1.00
2022-10-31T10:22:29.257Z,2.20
2022-10-31T10:25:11.991Z,0.25
2022-10-31T10:27:42.837Z,2.25
2022-10-31T10:30:32.253Z,1.50
2022-10-31T10:33:04.082Z,1.50
2022-10-31T10:35:40.005Z,2.00
2022-10-31T10:38:29.529Z,0.50
2022-10-31T10:41:00.267Z,0.75
2022-10-31T10:43:38.593Z,1.00
2022-10-31T10:46:30.797Z,0.50
2022-10-31T10:49:10.830Z,1.00
2022-10-31T10:55:02.432Z,0.50
2022-10-31T10:57:49.197Z,1.00
2022-10-31T11:00:40.020Z,0.00
2022-10-31T11:03:08.286Z,0.00
2022-10-31T11:05:46.261Z,0.00
2022-10-31T11:08:32.107Z,0.00
2022-10-31T11:11:04.206Z,0.00
2022-10-31T11:13:34.187Z,0.00
2022-10-31T11:16:11.172Z,0.00
2022-10-31T11:18:46.370Z,0.00
2022-10-31T11:21:30.477Z,0.00
2022-10-31T11:24:27.447Z,0.00
2022-10-31T11:27:21.262Z,0.00
2022-10-31T11:29:50.497Z,0.00
2022-10-31T11:32:24.562Z,0.00
2022-10-31T11:34:56.404Z,0.75
2022-10-31T11:37:30.819Z,0.25
2022-10-31T11:40:01.891Z,0.00
2022-10-31T11:42:37.344Z,0.00
2022-10-31T11:45:17.413Z,0.00
2022-10-31T11:47:55.257Z,1.25
2022-10-31T11:50:40.528Z,0.00
2022-10-31T11:53:28.406Z,0.75
2022-10-31T11:56:22.988Z,0.75
2022-10-31T11:59:07.240Z,0.75
2022-10-31T12:01:36.350Z,0.00
2022-10-31T12:04:18.600Z,0.00
2022-10-31T12:06:48.650Z,0.00
2022-10-31T12:09:26.603Z,0.00
2022-10-31T12:12:36.402Z,0.25
2022-10-31T12:15:25.983Z,1.00
2022-10-31T12:18:02.610Z,0.00
2022-10-31T12:20:55.684Z,0.00
2022-10-31T12:23:34.862Z,0.75
2022-10-31T12:26:26.350Z,0.75
2022-10-31T12:29:09.411Z,0.50
2022-10-31T12:32:03.473Z,0.00
2022-10-31T12:34:47.755Z,1.00
2022-10-31T12:37:38.397Z,0.00
2022-10-31T12:40:12.045Z,0.00
2022-10-31T12:43:10.328Z,0.25
2022-10-31T12:45:57.436Z,0.25
2022-10-31T12:48:25.317Z,0.00
2022-10-31T12:50:55.673Z,1.00
2022-10-31T12:54:07.717Z,0.25
2022-10-31T12:56:41.358Z,0.00
2022-10-31T12:59:39.962Z,0.50
2022-10-31T13:02:31.225Z,0.25
2022-10-31T13:05:21.389Z,0.00
2022-10-31T13:08:13.040Z,0.00
2022-10-31T13:10:52.687Z,0.00
2022-10-31T13:13:27.714Z,0.00
2022-10-31T13:16:02.916Z,0.00
2022-10-31T13:18:55.978Z,0.00
2022-10-31T13:22:04.364Z,0.00
2022-10-31T13:25:04.413Z,0.00
2022-10-31T13:27:47.322Z,0.00
2022-10-31T13:30:33.595Z,0.00
2022-10-31T13:33:26.247Z,0.00
2022-10-31T13:36:17.124Z,0.00
2022-10-31T13:38:47.770Z,0.00
2022-10-31T13:41:56.207Z,2.50
2022-10-31T13:44:28.869Z,1.00
2022-10-31T13:46:58.594Z,0.00
2022-10-31T13:49:28.018Z,0.00
2022-10-31T13:52:13.555Z,0.00
2022-10-31T13:54:44.010Z,0.25
2022-10-31T13:57:39.298Z,0.00
2022-10-31T14:00:22.481Z,0.00
2022-10-31T14:02:57.776Z,0.00
2022-10-31T14:05:36.575Z,0.50
2022-10-31T14:08:07.763Z,0.75
2022-10-31T14:10:35.160Z,1.50
2022-10-31T14:13:10.779Z,4.60
2022-10-31T14:15:42.283Z,3.20
2022-10-31T14:18:26.675Z,1.00
2022-10-31T14:20:54.167Z,0.60
2022-10-31T14:23:43.587Z,0.80
2022-10-31T14:26:33.286Z,0.80
2022-10-31T14:29:30.603Z,3.00
2022-10-31T14:32:08.790Z,4.80
2022-10-31T14:34:58.972Z,2.20
2022-10-31T14:37:32.692Z,1.00
2022-10-31T14:40:25.857Z,1.00
2022-10-31T14:43:13.376Z,1.00
2022-10-31T14:46:02.526Z,0.60
2022-10-31T14:48:30.174Z,1.00
2022-10-31T14:51:03.807Z,1.00
2022-10-31T14:53:36.178Z,3.60
2022-10-31T14:56:07.105Z,2.00
2022-10-31T14:58:45.468Z,2.60
2022-10-31T15:01:29.466Z,0.00
2022-10-31T15:04:24.304Z,1.60
2022-10-31T15:07:16.416Z,1.00
2022-10-31T15:09:56.308Z,0.60
2022-10-31T15:12:26.468Z,1.00
2022-10-31T15:14:54.183Z,1.00
2022-10-31T15:17:22.627Z,1.20
2022-10-31T15:19:50.547Z,1.80
2022-10-31T15:22:24.285Z,1.20
2022-10-31T15:24:57.610Z,1.80
2022-10-31T15:27:26.037Z,1.00
2022-10-31T15:29:58.028Z,0.80
2022-10-31T15:32:28.379Z,0.20
2022-10-31T15:34:57.685Z,2.00
2022-10-31T15:37:27.515Z,1.00
2022-10-31T15:39:54.978Z,0.80
2022-10-31T15:42:34.823Z,1.00
2022-10-31T15:45:14.193Z,0.80
2022-10-31T15:47:55.560Z,0.00
2022-10-31T15:50:30.132Z,0.00
2022-10-31T15:52:58.198Z,1.00
2022-10-31T15:55:33.544Z,0.20
2022-10-31T15:58:06.001Z,0.00
2022-10-31T16:00:39.657Z,1.80
2022-10-31T16:03:23.262Z,2.80
2022-10-31T16:05:53.949Z,4.40
2022-10-31T16:08:47.648Z,6.00
2022-10-31T16:11:15.001Z,9.20
2022-10-31T16:14:00.465Z,5.00
2022-10-31T16:16:35.270Z,0.40
2022-10-31T16:19:39.172Z,0.00
2022-10-31T16:22:15.228Z,1.00
2022-10-31T16:24:45.293Z,1.40
2022-10-31T16:27:26.767Z,1.40
2022-10-31T16:29:55.160Z,1.00
2022-10-31T16:32:38.710Z,1.60
2022-10-31T16:35:12.103Z,3.00
2022-10-31T16:37:43.275Z,2.60
2022-10-31T16:40:15.100Z,1.00
2022-10-31T16:42:44.412Z,0.80
2022-10-31T16:45:26.571Z,2.00
2022-10-31T16:47:54.214Z,2.00
2022-10-31T16:50:27.269Z,8.20
2022-10-31T16:56:03.694Z,3.80
2022-10-31T16:58:36.130Z,1.00
2022-10-31T17:01:06.900Z,4.00
2022-10-31T17:03:34.581Z,0.00
2022-10-31T17:06:02.278Z,1.00
2022-10-31T17:08:31.102Z,2.00
2022-10-31T17:10:59.818Z,0.80
2022-10-31T17:13:31.222Z,1.20
2022-10-31T17:16:01.067Z,1.20
2022-10-31T17:18:29.357Z,1.40
2022-10-31T17:21:06.416Z,3.20
2022-10-31T17:23:35.155Z,1.00
2022-10-31T17:26:02.990Z,4.60
2022-10-31T17:28:30.590Z,5.40
2022-10-31T17:30:59.627Z,2.00
2022-10-31T17:33:27.149Z,1.20
2022-10-31T17:35:54.824Z,2.00
2022-10-31T17:38:22.759Z,3.60
2022-10-31T17:40:50.521Z,2.40
2022-10-31T17:43:18.356Z,0.60
2022-10-31T17:45:45.913Z,1.40
2022-10-31T17:48:13.715Z,1.80
2022-10-31T17:50:42.285Z,3.20
2022-10-31T17:53:09.899Z,1.00
2022-10-31T17:55:37.783Z,1.00
2022-10-31T17:58:06.237Z,3.60
2022-10-31T18:00:34.405Z,1.40
2022-10-31T18:03:04.004Z,1.60
2022-10-31T18:05:33.778Z,4.00
2022-10-31T18:08:04.211Z,2.00
2022-10-31T18:10:32.387Z,2.00
2022-10-31T18:13:00.400Z,1.00
2022-10-31T18:15:29.250Z,2.00
2022-10-31T18:17:56.807Z,1.20
2022-10-31T18:20:24.613Z,1.40
2022-10-31T18:22:52.520Z,3.60
2022-10-31T18:25:20.227Z,2.80
2022-10-31T18:27:48.156Z,3.60
2022-10-31T18:30:16.125Z,2.40
2022-10-31T18:32:43.747Z,2.00
2022-10-31T18:35:11.668Z,2.80
2022-10-31T18:37:39.320Z,5.20
2022-10-31T18:40:07.549Z,5.00
2022-10-31T18:42:34.897Z,1.00
2022-10-31T18:45:11.459Z,3.80
2022-10-31T18:47:52.227Z,2.00
2022-10-31T18:50:20.509Z,2.60
2022-10-31T18:52:48.340Z,2.80
2022-10-31T18:55:15.828Z,5.00
2022-10-31T18:57:43.548Z,3.60
2022-10-31T19:00:11.617Z,6.00
2022-10-31T19:02:39.812Z,3.80
2022-10-31T19:05:07.487Z,3.20
2022-10-31T19:07:35.727Z,4.40
2022-10-31T19:10:03.243Z,4.60
2022-10-31T19:12:33.447Z,7.60
2022-10-31T19:15:00.945Z,10.80
2022-10-31T19:17:28.295Z,5.40
2022-10-31T19:19:55.747Z,8.40
2022-10-31T19:22:23.209Z,4.40
2022-10-31T19:24:50.797Z,2.00
2022-10-31T19:27:18.356Z,5.80
2022-10-31T19:29:48.613Z,5.40
2022-10-31T19:32:16.473Z,7.80
2022-10-31T19:34:44.158Z,9.00
2022-10-31T19:37:12.285Z,8.00
2022-10-31T19:39:43.936Z,6.80
2022-10-31T19:42:12.361Z,7.00
2022-10-31T19:44:40.094Z,6.20
2022-10-31T19:47:07.621Z,9.40
2022-10-31T19:49:35.052Z,6.60
2022-10-31T19:52:02.805Z,11.00
2022-10-31T19:54:30.593Z,8.40
2022-10-31T19:56:58.430Z,10.00
2022-10-31T19:59:26.761Z,11.00
2022-10-31T20:01:55.120Z,11.60
2022-10-31T20:04:23.164Z,9.20
2022-10-31T20:06:51.270Z,6.60
2022-10-31T20:09:19.447Z,10.20
2022-10-31T20:11:47.993Z,10.60
2022-10-31T20:14:17.977Z,9.20
2022-10-31T20:16:46.429Z,6.80
2022-10-31T20:19:14.604Z,7.00
2022-10-31T20:21:44.052Z,7.20
2022-10-31T20:24:12.612Z,9.80
2022-10-31T20:26:41.573Z,8.60
2022-10-31T20:29:13.794Z,7.20
2022-10-31T20:31:41.975Z,6.00
2022-10-31T20:34:09.433Z,7.60
2022-10-31T20:36:37.811Z,5.00
2022-10-31T20:39:06.124Z,6.60
2022-10-31T20:41:38.249Z,5.40
2022-10-31T20:44:06.805Z,7.00
2022-10-31T20:46:34.928Z,6.00
2022-10-31T20:49:02.876Z,6.00
2022-10-31T20:51:32.131Z,6.60
2022-10-31T20:54:00.835Z,6.00
2022-10-31T20:56:29.841Z,2.60
2022-10-31T20:58:58.198Z,5.60
2022-10-31T21:01:29.392Z,6.60
2022-10-31T21:03:58.544Z,6.40
2022-10-31T21:06:27.234Z,6.40
2022-10-31T21:08:55.283Z,5.80
2022-10-31T21:11:26.163Z,3.80
2022-10-31T21:13:54.539Z,8.80
2022-10-31T21:16:25.219Z,6.20
2022-10-31T21:18:53.964Z,5.80
2022-10-31T21:21:30.784Z,5.20
2022-10-31T21:24:03.152Z,6.00
2022-10-31T21:26:35.796Z,5.00
2022-10-31T21:29:05.524Z,5.80
2022-10-31T21:31:35.064Z,8.40
2022-10-31T21:34:02.964Z,7.20
2022-10-31T21:36:30.879Z,7.60
2022-10-31T21:38:58.737Z,8.20
2022-10-31T21:41:26.973Z,6.00
2022-10-31T21:43:55.398Z,6.20
2022-10-31T21:46:26.285Z,8.20
2022-10-31T21:48:54.858Z,6.00
2022-10-31T21:51:28.203Z,6.00
2022-10-31T21:54:15.196Z,6.40
2022-10-31T21:56:43.858Z,6.60
2022-10-31T21:59:12.270Z,6.60
2022-10-31T22:01:40.293Z,8.40
2022-10-31T22:04:07.870Z,5.60
2022-10-31T22:06:36.425Z,4.40
2022-10-31T22:09:06.374Z,8.20
2022-10-31T22:11:34.915Z,6.00
2022-10-31T22:14:03.523Z,5.40
2022-10-31T22:16:34.276Z,8.20
2022-10-31T22:19:05.900Z,5.20
2022-10-31T22:21:42.524Z,3.80
2022-10-31T22:24:11.241Z,8.40
2022-10-31T22:26:40.407Z,6.00
2022-10-31T22:29:12.723Z,3.80
2022-10-31T22:31:43.473Z,2.00
2022-10-31T22:34:11.716Z,10.40
2022-10-31T22:36:39.577Z,7.00
2022-10-31T22:39:07.957Z,7.00
2022-10-31T22:41:36.941Z,6.20
2022-10-31T22:44:05.996Z,6.60
2022-10-31T22:46:37.908Z,7.20
2022-10-31T22:49:14.360Z,6.00
2022-10-31T22:51:43.368Z,5.80
2022-10-31T22:54:18.047Z,6.20
2022-10-31T22:56:46.911Z,5.20
2022-10-31T22:59:16.575Z,6.00
2022-10-31T23:01:46.128Z,9.20
2022-10-31T23:04:16.127Z,2.40
2022-10-31T23:06:44.227Z,6.00
2022-10-31T23:09:15.142Z,6.00
2022-10-31T23:11:43.467Z,6.20
2022-10-31T23:14:19.062Z,7.20
2022-10-31T23:16:54.855Z,5.80
2022-10-31T23:19:30.822Z,5.00
2022-10-31T23:22:04.926Z,6.00
2022-10-31T23:24:34.574Z,7.20
2022-10-31T23:27:23.953Z,7.80
2022-10-31T23:29:53.063Z,6.00
2022-10-31T23:32:38.317Z,6.00
2022-10-31T23:35:08.946Z,5.00
2022-10-31T23:37:38.875Z,5.80
2022-10-31T23:40:08.949Z,5.00
2022-10-31T23:42:36.622Z,5.00
2022-10-31T23:45:04.709Z,3.40
2022-10-31T23:47:32.310Z,7.60
2022-10-31T23:50:00.063Z,5.00
2022-10-31T23:52:27.913Z,6.20
2022-10-31T23:54:55.525Z,6.40
2022-10-31T23:57:23.171Z,6.00
2022-10-31T23:59:51.116Z,6.60
